الصفحة الرئيسية
METAR-TAF:

METAR-TAF

مطار :

Ambon, إندونيسيا

دائرة عرض: 03-42S, خط طول: 128-05E, ارتفاع: 12 متر

مراقبة الطقس الحالي

تاريخ ووقت الإصدار 12ساعات و 20 دقيقة قبل الساعة 04:00UTC
ريح 9 عقدة من الجنوب/الجنوب الغربي
درجة الحرارة 33°درجة مئوية
الرطوبة 59%
ضغط 1008 hPa
الرؤية 10 كم أو أكثر
غيوم متفرقة على ارتفاع 2000 قدم

METAR: WAPP 060400Z 21009KT 9999 SCT020 33/24 Q1008 NOSIG

زمن: 01:20 (16:20 UTC)

توقعات

تاريخ ووقت الإصدار 5ساعات و 20 دقيقة قبل الساعة 11:00UTC
التوقعات صالحة من06 الساعة 12 UTC إلى 07 الساعة 12 UTC
ريح 8 عقدة من الشمال
الرؤية 10 كم أو أكثر
غيوم متفرقة على ارتفاع 2000 قدم

TAF: WAPP 061100Z 0612/0712 35008KT 9999 SCT020

أرصاد الطقس والتوقعات من أكثر من 4000 مطار (تقارير الطقس للمطار METAR والتنبؤ بالطقس بالمطارTAF).

المحطات المتاحة هي النقط الصفراء والحمراء على الخريطة.

حرك المؤشر فوق النقطة لمعرفة اسم المحطة.

ثم انقر لمعرفة أرصاد وتوقعات الطقس.

لتغيير الخارطة: اضغط على الأزرار الخضراء مع رمز الصليب الأسود للتكبير. على الزر الأخضر مع شرطة للتصغير، أو على الأسهم الخضراء للخرائط المجاورة.


METAR-TAF: